Time,TemperatureF,DewpointF,PressureIn,WindDirection,WindDirectionDegrees,WindSpeedMPH,WindSpeedGustMPH,Humidity,HourlyPrecipIn,Conditions,Clouds,dailyrainin,SoftwareType,DateUTC
2013-07-02 00:01:00,67.0,56.0,30.22,North,9,0.0,-999.0,67,-99.99,,,-99.99,,2013-07-02 05:01:00,
2013-07-02 00:11:00,67.0,56.0,30.22,North,9,0.0,-999.0,67,-99.99,,,-99.99,,2013-07-02 05:11:00,
2013-07-02 00:22:00,67.0,54.0,30.21,NNE,33,0.0,-999.0,62,-99.99,,,-99.99,,2013-07-02 05:22:00,
2013-07-02 00:32:00,67.0,54.0,30.21,NNE,33,0.0,-999.0,62,-99.99,,,-99.99,,2013-07-02 05:32:00,
2013-07-02 00:43:00,67.0,54.0,30.21,NNE,33,0.0,-999.0,62,-99.99,,,-99.99,,2013-07-02 05:43:00,
2013-07-02 00:53:00,66.0,53.0,30.22,NE,35,0.0,-999.0,64,-99.99,,,-99.99,,2013-07-02 05:53:00,
2013-07-02 01:01:00,66.0,53.0,30.22,NE,35,0.0,-999.0,64,-99.99,,,-99.99,,2013-07-02 06:01:00,
2013-07-02 01:12:00,66.0,53.0,30.22,NE,35,0.0,-999.0,64,-99.99,,,-99.99,,2013-07-02 06:12:00,
2013-07-02 01:23:00,64.0,54.0,30.22,NE,35,0.0,-999.0,69,-99.99,,,-99.99,,2013-07-02 06:23:00,
2013-07-02 01:34:00,64.0,54.0,30.22,NE,35,0.0,-999.0,69,-99.99,,,-99.99,,2013-07-02 06:34:00,
2013-07-02 01:43:00,64.0,54.0,30.22,NE,35,0.0,-999.0,69,-99.99,,,-99.99,,2013-07-02 06:43:00,
2013-07-02 01:53:00,63.0,54.0,30.22,NE,35,0.0,-999.0,73,-99.99,,,-99.99,,2013-07-02 06:53:00,
2013-07-02 02:01:00,63.0,54.0,30.22,NE,35,0.0,-999.0,73,-99.99,,,-99.99,,2013-07-02 07:01:00,
2013-07-02 02:12:00,63.0,54.0,30.22,NE,35,0.0,-999.0,73,-99.99,,,-99.99,,2013-07-02 07:12:00,
2013-07-02 02:22:00,62.0,54.0,30.22,NE,35,0.0,-999.0,75,-99.99,,,-99.99,,2013-07-02 07:22:00,
2013-07-02 02:34:00,62.0,54.0,30.22,NE,35,0.0,-999.0,75,-99.99,,,-99.99,,2013-07-02 07:34:00,
2013-07-02 02:44:00,62.0,54.0,30.22,NE,35,0.0,-999.0,75,-99.99,,,-99.99,,2013-07-02 07:44:00,
2013-07-02 02:53:00,61.0,54.0,30.22,NE,35,0.0,-999.0,77,-99.99,,,-99.99,,2013-07-02 07:53:00,
2013-07-02 03:02:00,61.0,54.0,30.22,NE,35,0.0,-999.0,77,-99.99,,,-99.99,,2013-07-02 08:02:00,
2013-07-02 03:12:00,61.0,54.0,30.22,NE,35,0.0,-999.0,77,-99.99,,,-99.99,,2013-07-02 08:12:00,
2013-07-02 03:22:00,60.0,54.0,30.22,NE,35,0.0,-999.0,80,-99.99,,,-99.99,,2013-07-02 08:22:00,
2013-07-02 03:33:00,60.0,54.0,30.22,NE,35,0.0,-999.0,80,-99.99,,,-99.99,,2013-07-02 08:33:00,
2013-07-02 03:44:00,60.0,54.0,30.22,NE,35,0.0,-999.0,80,-99.99,,,-99.99,,2013-07-02 08:44:00,
2013-07-02 03:53:00,59.0,53.0,30.22,NE,35,0.0,-999.0,81,-99.99,,,-99.99,,2013-07-02 08:53:00,
2013-07-02 04:02:00,59.0,53.0,30.22,NE,35,0.0,-999.0,81,-99.99,,,-99.99,,2013-07-02 09:02:00,
2013-07-02 04:11:00,59.0,53.0,30.22,NE,35,0.0,-999.0,81,-99.99,,,-99.99,,2013-07-02 09:11:00,
2013-07-02 04:23:00,59.0,54.0,30.22,NE,35,0.0,-999.0,82,-99.99,,,-99.99,,2013-07-02 09:23:00,
2013-07-02 04:33:00,59.0,54.0,30.22,NE,35,0.0,-999.0,82,-99.99,,,-99.99,,2013-07-02 09:33:00,
2013-07-02 04:43:00,59.0,54.0,30.22,NE,35,0.0,-999.0,82,-99.99,,,-99.99,,2013-07-02 09:43:00,
2013-07-02 04:52:00,58.0,53.0,30.22,NE,35,0.0,-999.0,83,-99.99,,,-99.99,,2013-07-02 09:52:00,
2013-07-02 05:01:00,58.0,53.0,30.22,NE,35,0.0,-999.0,83,-99.99,,,-99.99,,2013-07-02 10:01:00,
2013-07-02 05:11:00,58.0,53.0,30.22,NE,35,0.0,-999.0,83,-99.99,,,-99.99,,2013-07-02 10:11:00,
2013-07-02 05:22:00,57.0,52.0,30.22,NNE,16,0.0,-999.0,84,-99.99,,,-99.99,,2013-07-02 10:22:00,
2013-07-02 05:33:00,57.0,52.0,30.22,NNE,16,0.0,-999.0,84,-99.99,,,-99.99,,2013-07-02 10:33:00,
2013-07-02 05:44:00,57.0,52.0,30.22,NNE,16,0.0,-999.0,84,-99.99,,,-99.99,,2013-07-02 10:44:00,
2013-07-02 05:52:00,57.0,53.0,30.22,NNE,16,0.0,-999.0,86,-99.99,,,-99.99,,2013-07-02 10:52:00,
2013-07-02 06:01:00,57.0,53.0,30.22,NNE,16,0.0,-999.0,86,-99.99,,,-99.99,,2013-07-02 11:01:00,
2013-07-02 06:11:00,57.0,53.0,30.22,NNE,16,0.0,-999.0,86,-99.99,,,-99.99,,2013-07-02 11:11:00,
2013-07-02 06:22:00,58.0,54.0,30.22,NNE,16,0.0,-999.0,86,-99.99,,,-99.99,,2013-07-02 11:22:00,
2013-07-02 06:33:00,58.0,54.0,30.22,NNE,16,0.0,-999.0,86,-99.99,,,-99.99,,2013-07-02 11:33:00,
2013-07-02 06:42:00,58.0,54.0,30.22,NNE,16,0.0,-999.0,86,-99.99,,,-99.99,,2013-07-02 11:42:00,
2013-07-02 06:52:00,58.0,54.0,30.22,NNE,16,0.0,-999.0,86,-99.99,,,-99.99,,2013-07-02 11:52:00,
2013-07-02 07:01:00,58.0,54.0,30.22,NNE,16,0.0,-999.0,86,-99.99,,,-99.99,,2013-07-02 12:01:00,
2013-07-02 07:11:00,58.0,54.0,30.22,NNE,16,0.0,-999.0,86,-99.99,,,-99.99,,2013-07-02 12:11:00,
2013-07-02 07:23:00,59.0,54.0,30.22,NNE,16,0.0,-999.0,82,-99.99,,,-99.99,,2013-07-02 12:23:00,
2013-07-02 07:33:00,59.0,54.0,30.22,NNE,16,0.0,-999.0,82,-99.99,,,-99.99,,2013-07-02 12:33:00,
2013-07-02 07:43:00,59.0,54.0,30.22,NNE,16,0.0,-999.0,82,-99.99,,,-99.99,,2013-07-02 12:43:00,
2013-07-02 07:52:00,61.0,54.0,30.22,NNE,16,0.0,-999.0,77,-99.99,,,-99.99,,2013-07-02 12:52:00,
2013-07-02 08:01:00,61.0,54.0,30.22,NNE,16,0.0,-999.0,77,-99.99,,,-99.99,,2013-07-02 13:01:00,
2013-07-02 08:11:00,61.0,54.0,30.22,NNE,16,0.0,-999.0,77,-99.99,,,-99.99,,2013-07-02 13:11:00,
2013-07-02 08:22:00,62.0,54.0,30.22,NNE,12,0.0,-999.0,74,-99.99,,,-99.99,,2013-07-02 13:22:00,
2013-07-02 08:34:00,62.0,54.0,30.22,NNE,12,0.0,-999.0,74,-99.99,,,-99.99,,2013-07-02 13:34:00,
2013-07-02 08:43:00,62.0,54.0,30.22,NNE,12,0.0,-999.0,74,-99.99,,,-99.99,,2013-07-02 13:43:00,
2013-07-02 08:52:00,64.0,54.0,30.22,North,9,0.0,-999.0,70,-99.99,,,-99.99,,2013-07-02 13:52:00,
2013-07-02 09:02:00,64.0,54.0,30.22,North,9,0.0,-999.0,70,-99.99,,,-99.99,,2013-07-02 14:02:00,
2013-07-02 09:11:00,64.0,54.0,30.22,North,9,0.0,-999.0,70,-99.99,,,-99.99,,2013-07-02 14:11:00,
2013-07-02 09:22:00,66.0,53.0,30.22,North,8,0.0,-999.0,64,-99.99,,,-99.99,,2013-07-02 14:22:00,
2013-07-02 09:33:00,66.0,53.0,30.22,North,8,0.0,-999.0,64,-99.99,,,-99.99,,2013-07-02 14:33:00,
2013-07-02 09:43:00,66.0,53.0,30.22,North,8,0.0,-999.0,64,-99.99,,,-99.99,,2013-07-02 14:43:00,
2013-07-02 09:53:00,67.0,53.0,30.22,North,357,0.0,-999.0,61,-99.99,,,-99.99,,2013-07-02 14:53:00,
2013-07-02 10:02:00,67.0,53.0,30.22,North,357,0.0,-999.0,61,-99.99,,,-99.99,,2013-07-02 15:02:00,
2013-07-02 10:11:00,67.0,53.0,30.22,North,357,0.0,-999.0,61,-99.99,,,-99.99,,2013-07-02 15:11:00,
2013-07-02 10:22:00,70.0,52.0,30.21,North,0,0.0,-999.0,53,-99.99,,,-99.99,,2013-07-02 15:22:00,
2013-07-02 10:33:00,70.0,52.0,30.21,North,0,0.0,-999.0,53,-99.99,,,-99.99,,2013-07-02 15:33:00,
2013-07-02 10:44:00,70.0,52.0,30.21,North,0,0.0,-999.0,53,-99.99,,,-99.99,,2013-07-02 15:44:00,
2013-07-02 10:53:00,72.0,51.0,30.21,ENE,78,0.0,-999.0,48,-99.99,,,-99.99,,2013-07-02 15:53:00,
2013-07-02 11:01:00,72.0,51.0,30.21,ENE,78,0.0,-999.0,48,-99.99,,,-99.99,,2013-07-02 16:01:00,
2013-07-02 11:12:00,72.0,51.0,30.21,ENE,78,0.0,-999.0,48,-99.99,,,-99.99,,2013-07-02 16:12:00,
2013-07-02 11:22:00,73.0,45.0,30.20,NNE,30,0.0,-999.0,37,-99.99,,,-99.99,,2013-07-02 16:22:00,
2013-07-02 11:33:00,73.0,45.0,30.20,NNE,30,0.0,-999.0,37,-99.99,,,-99.99,,2013-07-02 16:33:00,
2013-07-02 11:43:00,73.0,45.0,30.20,NNE,30,0.0,-999.0,37,-99.99,,,-99.99,,2013-07-02 16:43:00,
2013-07-02 11:52:00,75.0,46.0,30.20,NE,45,0.0,-999.0,36,-99.99,,,-99.99,,2013-07-02 16:52:00,
2013-07-02 12:02:00,75.0,46.0,30.20,NE,45,0.0,-999.0,36,-99.99,,,-99.99,,2013-07-02 17:02:00,
2013-07-02 12:12:00,75.0,46.0,30.20,NE,45,0.0,-999.0,36,-99.99,,,-99.99,,2013-07-02 17:12:00,
2013-07-02 12:33:00,76.0,48.0,30.20,ENE,72,0.0,-999.0,37,-99.99,,,-99.99,,2013-07-02 17:33:00,
2013-07-02 12:43:00,76.0,48.0,30.20,ENE,72,0.0,-999.0,37,-99.99,,,-99.99,,2013-07-02 17:43:00,
2013-07-02 12:53:00,77.0,44.0,30.20,NE,38,2.0,-999.0,31,-99.99,,,-99.99,,2013-07-02 17:53:00,
2013-07-02 13:02:00,77.0,44.0,30.20,NE,38,2.0,-999.0,31,-99.99,,,-99.99,,2013-07-02 18:02:00,
2013-07-02 13:12:00,77.0,44.0,30.20,NE,38,2.0,-999.0,31,-99.99,,,-99.99,,2013-07-02 18:12:00,
2013-07-02 13:23:00,78.0,46.0,30.19,NE,39,0.0,-999.0,32,-99.99,,,-99.99,,2013-07-02 18:23:00,
2013-07-02 13:34:00,78.0,46.0,30.19,NE,39,0.0,-999.0,32,-99.99,,,-99.99,,2013-07-02 18:34:00,
2013-07-02 13:43:00,78.0,46.0,30.19,NE,39,0.0,-999.0,32,-99.99,,,-99.99,,2013-07-02 18:43:00,
2013-07-02 13:53:00,78.0,47.0,30.18,NE,50,6.0,-999.0,33,-99.99,,,-99.99,,2013-07-02 18:53:00,
2013-07-02 14:01:00,78.0,47.0,30.18,NE,50,6.0,-999.0,33,-99.99,,,-99.99,,2013-07-02 19:01:00,
2013-07-02 14:12:00,78.0,47.0,30.18,NE,50,6.0,-999.0,33,-99.99,,,-99.99,,2013-07-02 19:12:00,
2013-07-02 14:22:00,79.0,47.0,30.17,North,2,3.0,-999.0,32,-99.99,,,-99.99,,2013-07-02 19:22:00,
2013-07-02 14:34:00,79.0,47.0,30.17,North,2,3.0,-999.0,32,-99.99,,,-99.99,,2013-07-02 19:34:00,
2013-07-02 14:43:00,79.0,47.0,30.17,North,2,3.0,-999.0,32,-99.99,,,-99.99,,2013-07-02 19:43:00,
2013-07-02 14:53:00,79.0,47.0,30.16,North,351,5.0,-999.0,33,-99.99,,,-99.99,,2013-07-02 19:53:00,
2013-07-02 15:02:00,79.0,47.0,30.16,North,351,5.0,-999.0,33,-99.99,,,-99.99,,2013-07-02 20:02:00,
2013-07-02 15:11:00,79.0,47.0,30.16,North,351,5.0,-999.0,33,-99.99,,,-99.99,,2013-07-02 20:11:00,
2013-07-02 15:22:00,80.0,48.0,30.16,North,359,1.0,-999.0,33,-99.99,,,-99.99,,2013-07-02 20:22:00,
2013-07-02 15:33:00,80.0,48.0,30.16,North,359,1.0,-999.0,33,-99.99,,,-99.99,,2013-07-02 20:33:00,
2013-07-02 15:43:00,80.0,48.0,30.16,North,359,1.0,-999.0,33,-99.99,,,-99.99,,2013-07-02 20:43:00,
2013-07-02 15:52:00,80.0,48.0,30.16,NNW,340,0.0,-999.0,33,-99.99,,,-99.99,,2013-07-02 20:52:00,
2013-07-02 16:02:00,80.0,48.0,30.16,NNW,340,0.0,-999.0,33,-99.99,,,-99.99,,2013-07-02 21:02:00,
2013-07-02 16:11:00,80.0,48.0,30.16,NNW,340,0.0,-999.0,33,-99.99,,,-99.99,,2013-07-02 21:11:00,
2013-07-02 16:22:00,80.0,48.0,30.15,North,0,0.0,-999.0,33,-99.99,,,-99.99,,2013-07-02 21:22:00,
2013-07-02 16:33:00,80.0,48.0,30.15,North,0,0.0,-999.0,33,-99.99,,,-99.99,,2013-07-02 21:33:00,
2013-07-02 16:44:00,80.0,48.0,30.15,North,0,0.0,-999.0,33,-99.99,,,-99.99,,2013-07-02 21:44:00,
2013-07-02 16:52:00,80.0,50.0,30.14,North,0,0.0,-999.0,35,-99.99,,,-99.99,,2013-07-02 21:52:00,
2013-07-02 17:01:00,80.0,50.0,30.14,North,0,0.0,-999.0,35,-99.99,,,-99.99,,2013-07-02 22:01:00,
2013-07-02 17:11:00,80.0,50.0,30.14,North,0,0.0,-999.0,35,-99.99,,,-99.99,,2013-07-02 22:11:00,
2013-07-02 17:22:00,80.0,49.0,30.14,NNE,19,1.0,-999.0,34,-99.99,,,-99.99,,2013-07-02 22:22:00,
2013-07-02 17:34:00,80.0,49.0,30.14,NNE,19,1.0,-999.0,34,-99.99,,,-99.99,,2013-07-02 22:34:00,
2013-07-02 17:43:00,80.0,49.0,30.14,NNE,19,1.0,-999.0,34,-99.99,,,-99.99,,2013-07-02 22:43:00,
2013-07-02 17:53:00,80.0,49.0,30.14,NNW,339,0.0,-999.0,34,-99.99,,,-99.99,,2013-07-02 22:53:00,
2013-07-02 18:01:00,80.0,49.0,30.14,NNW,339,0.0,-999.0,34,-99.99,,,-99.99,,2013-07-02 23:01:00,
2013-07-02 18:12:00,80.0,49.0,30.14,NNW,339,0.0,-999.0,34,-99.99,,,-99.99,,2013-07-02 23:12:00,
2013-07-02 18:22:00,80.0,50.0,30.13,NE,35,1.0,-999.0,35,-99.99,,,-99.99,,2013-07-02 23:22:00,
2013-07-02 18:33:00,80.0,50.0,30.13,NE,35,1.0,-999.0,35,-99.99,,,-99.99,,2013-07-02 23:33:00,
2013-07-02 18:44:00,80.0,50.0,30.13,NE,35,1.0,-999.0,35,-99.99,,,-99.99,,2013-07-02 23:44:00,
2013-07-02 18:52:00,80.0,49.0,30.13,NNE,12,4.0,-999.0,34,-99.99,,,-99.99,,2013-07-02 23:52:00,
2013-07-02 19:01:00,80.0,49.0,30.13,NNE,12,4.0,-999.0,34,-99.99,,,-99.99,,2013-07-03 00:01:00,
2013-07-02 19:11:00,80.0,49.0,30.13,NNE,12,4.0,-999.0,34,-99.99,,,-99.99,,2013-07-03 00:11:00,
2013-07-02 19:22:00,79.0,49.0,30.13,NNE,14,6.0,-999.0,35,-99.99,,,-99.99,,2013-07-03 00:22:00,
2013-07-02 19:33:00,79.0,49.0,30.13,NNE,14,6.0,-999.0,35,-99.99,,,-99.99,,2013-07-03 00:33:00,
2013-07-02 19:44:00,79.0,49.0,30.13,NNE,14,6.0,-999.0,35,-99.99,,,-99.99,,2013-07-03 00:44:00,
2013-07-02 19:52:00,79.0,50.0,30.12,North,0,0.0,-999.0,36,-99.99,,,-99.99,,2013-07-03 00:52:00,
2013-07-02 20:01:00,79.0,50.0,30.12,North,0,0.0,-999.0,36,-99.99,,,-99.99,,2013-07-03 01:01:00,
2013-07-02 20:11:00,79.0,50.0,30.12,North,0,0.0,-999.0,36,-99.99,,,-99.99,,2013-07-03 01:11:00,
2013-07-02 20:22:00,78.0,50.0,30.11,North,7,0.0,-999.0,38,-99.99,,,-99.99,,2013-07-03 01:22:00,
2013-07-02 20:33:00,78.0,50.0,30.11,North,7,0.0,-999.0,38,-99.99,,,-99.99,,2013-07-03 01:33:00,
2013-07-02 20:43:00,78.0,50.0,30.11,North,7,0.0,-999.0,38,-99.99,,,-99.99,,2013-07-03 01:43:00,
2013-07-02 20:59:00,78.0,50.0,30.11,North,7,0.0,-999.0,38,-99.99,,,-99.99,,2013-07-03 01:59:00,
2013-07-02 21:04:00,77.0,52.0,30.12,North,9,0.0,-999.0,42,-99.99,,,-99.99,,2013-07-03 02:04:00,
2013-07-02 21:14:00,77.0,52.0,30.12,North,9,0.0,-999.0,42,-99.99,,,-99.99,,2013-07-03 02:14:00,
2013-07-02 21:39:00,77.0,52.0,30.12,North,9,0.0,-999.0,42,-99.99,,,-99.99,,2013-07-03 02:39:00,
2013-07-02 21:44:00,77.0,52.0,30.12,North,9,0.0,-999.0,42,-99.99,,,-99.99,,2013-07-03 02:44:00,
2013-07-02 21:59:00,73.0,54.0,30.13,North,9,0.0,-999.0,51,-99.99,,,-99.99,,2013-07-03 02:59:00,
2013-07-02 22:05:00,73.0,54.0,30.13,North,9,0.0,-999.0,51,-99.99,,,-99.99,,2013-07-03 03:05:00,
2013-07-02 22:13:00,73.0,54.0,30.13,North,9,0.0,-999.0,51,-99.99,,,-99.99,,2013-07-03 03:13:00,
2013-07-02 22:25:00,71.0,54.0,30.13,North,9,0.0,0.0,56,0.00,,,0.00,,2013-07-03 03:25:00,
2013-07-02 22:35:00,71.0,54.0,30.13,North,9,0.0,0.0,56,0.00,,,0.00,,2013-07-03 03:35:00,
2013-07-02 22:49:00,71.0,54.0,30.13,North,9,0.0,0.0,56,0.00,,,0.00,,2013-07-03 03:49:00,
2013-07-02 22:58:00,69.0,55.0,30.14,North,9,0.0,0.0,62,0.00,,,0.00,,2013-07-03 03:58:00,
2013-07-02 23:01:00,69.0,55.0,30.14,North,9,0.0,0.0,62,0.00,,,0.00,,2013-07-03 04:01:00,
2013-07-02 23:11:00,69.0,55.0,30.14,North,9,0.0,0.0,62,0.00,,,0.00,,2013-07-03 04:11:00,
2013-07-02 23:22:00,67.0,56.0,30.14,North,9,0.0,0.0,67,0.00,,,0.00,,2013-07-03 04:22:00,
2013-07-02 23:33:00,67.0,56.0,30.14,North,9,0.0,0.0,67,0.00,,,0.00,,2013-07-03 04:33:00,
2013-07-02 23:43:00,67.0,56.0,30.14,North,9,0.0,0.0,67,0.00,,,0.00,,2013-07-03 04:43:00,
2013-07-02 23:52:00,66.0,56.0,30.14,North,9,0.0,0.0,69,0.00,,,0.00,,2013-07-03 04:52:00,